sensor_id;sensor_type;location;lat;lon;timestamp;temperature;humidity
6054;DHT22;3055;50.886;14.814;2023-01-16T00:01:54;2.60;99.90
6054;DHT22;3055;50.886;14.814;2023-01-16T00:04:22;2.70;99.90
6054;DHT22;3055;50.886;14.814;2023-01-16T00:06:49;2.70;99.90
6054;DHT22;3055;50.886;14.814;2023-01-16T00:09:17;2.60;99.90
6054;DHT22;3055;50.886;14.814;2023-01-16T00:11:44;2.60;99.90
6054;DHT22;3055;50.886;14.814;2023-01-16T00:14:13;2.60;99.90
6054;DHT22;3055;50.886;14.814;2023-01-16T00:16:40;2.60;99.90
6054;DHT22;3055;50.886;14.814;2023-01-16T00:19:07;2.60;99.90
6054;DHT22;3055;50.886;14.814;2023-01-16T00:21:34;2.60;99.90
6054;DHT22;3055;50.886;14.814;2023-01-16T00:24:03;2.60;99.90
6054;DHT22;3055;50.886;14.814;2023-01-16T00:26:32;2.60;99.90
6054;DHT22;3055;50.886;14.814;2023-01-16T00:28:59;2.50;99.90
6054;DHT22;3055;50.886;14.814;2023-01-16T00:31:29;2.60;99.90
6054;DHT22;3055;50.886;14.814;2023-01-16T00:33:56;2.60;99.90
6054;DHT22;3055;50.886;14.814;2023-01-16T00:36:23;2.60;99.90
6054;DHT22;3055;50.886;14.814;2023-01-16T00:38:53;2.60;99.90
6054;DHT22;3055;50.886;14.814;2023-01-16T00:41:21;2.60;99.90
6054;DHT22;3055;50.886;14.814;2023-01-16T00:43:49;2.70;99.90
6054;DHT22;3055;50.886;14.814;2023-01-16T00:46:16;2.60;99.90
6054;DHT22;3055;50.886;14.814;2023-01-16T00:48:44;2.60;99.90
6054;DHT22;3055;50.886;14.814;2023-01-16T00:51:11;2.70;99.90
6054;DHT22;3055;50.886;14.814;2023-01-16T00:53:38;2.70;99.90
6054;DHT22;3055;50.886;14.814;2023-01-16T00:56:08;2.60;99.90
6054;DHT22;3055;50.886;14.814;2023-01-16T00:58:36;2.70;99.90
6054;DHT22;3055;50.886;14.814;2023-01-16T01:01:03;2.60;99.90
6054;DHT22;3055;50.886;14.814;2023-01-16T01:03:30;2.70;99.90
6054;DHT22;3055;50.886;14.814;2023-01-16T01:05:59;2.70;99.90
6054;DHT22;3055;50.886;14.814;2023-01-16T01:08:26;2.70;99.90
6054;DHT22;3055;50.886;14.814;2023-01-16T01:10:53;2.70;99.90
6054;DHT22;3055;50.886;14.814;2023-01-16T01:13:20;2.70;99.90
6054;DHT22;3055;50.886;14.814;2023-01-16T01:15:47;2.70;99.90
6054;DHT22;3055;50.886;14.814;2023-01-16T01:18:15;2.70;99.90
6054;DHT22;3055;50.886;14.814;2023-01-16T01:20:42;2.70;99.90
6054;DHT22;3055;50.886;14.814;2023-01-16T01:23:10;2.70;99.90
6054;DHT22;3055;50.886;14.814;2023-01-16T01:25:38;2.70;99.90
6054;DHT22;3055;50.886;14.814;2023-01-16T01:28:05;2.70;97.30
6054;DHT22;3055;50.886;14.814;2023-01-16T01:30:32;2.70;95.00
6054;DHT22;3055;50.886;14.814;2023-01-16T01:32:59;2.70;95.40
6054;DHT22;3055;50.886;14.814;2023-01-16T01:35:26;2.70;98.10
6054;DHT22;3055;50.886;14.814;2023-01-16T01:37:53;2.70;96.40
6054;DHT22;3055;50.886;14.814;2023-01-16T01:40:22;2.80;93.50
6054;DHT22;3055;50.886;14.814;2023-01-16T01:42:49;2.80;91.70
6054;DHT22;3055;50.886;14.814;2023-01-16T01:45:21;2.80;84.10
6054;DHT22;3055;50.886;14.814;2023-01-16T01:47:52;2.80;93.10
6054;DHT22;3055;50.886;14.814;2023-01-16T01:50:32;2.80;94.00
6054;DHT22;3055;50.886;14.814;2023-01-16T01:53:03;2.70;94.20
6054;DHT22;3055;50.886;14.814;2023-01-16T01:55:32;2.80;90.90
6054;DHT22;3055;50.886;14.814;2023-01-16T01:58:01;2.80;82.50
6054;DHT22;3055;50.886;14.814;2023-01-16T02:00:29;2.90;69.40
6054;DHT22;3055;50.886;14.814;2023-01-16T02:03:02;2.90;62.40
6054;DHT22;3055;50.886;14.814;2023-01-16T02:05:33;2.90;60.40
6054;DHT22;3055;50.886;14.814;2023-01-16T02:08:02;2.90;65.00
6054;DHT22;3055;50.886;14.814;2023-01-16T02:10:36;2.90;59.50
6054;DHT22;3055;50.886;14.814;2023-01-16T02:13:05;2.80;64.90
6054;DHT22;3055;50.886;14.814;2023-01-16T02:15:32;2.70;72.80
6054;DHT22;3055;50.886;14.814;2023-01-16T02:18:00;2.80;77.80
6054;DHT22;3055;50.886;14.814;2023-01-16T02:21:07;2.80;81.00
6054;DHT22;3055;50.886;14.814;2023-01-16T02:23:58;2.80;77.10
6054;DHT22;3055;50.886;14.814;2023-01-16T02:26:51;2.80;73.90
6054;DHT22;3055;50.886;14.814;2023-01-16T02:29:37;2.70;77.80
6054;DHT22;3055;50.886;14.814;2023-01-16T02:32:22;2.60;85.40
6054;DHT22;3055;50.886;14.814;2023-01-16T02:35:17;2.60;91.90
6054;DHT22;3055;50.886;14.814;2023-01-16T02:37:51;2.60;97.70
6054;DHT22;3055;50.886;14.814;2023-01-16T02:40:35;2.50;99.90
6054;DHT22;3055;50.886;14.814;2023-01-16T02:43:13;2.60;98.60
6054;DHT22;3055;50.886;14.814;2023-01-16T02:45:44;2.60;97.40
6054;DHT22;3055;50.886;14.814;2023-01-16T02:48:21;2.70;92.30
6054;DHT22;3055;50.886;14.814;2023-01-16T02:50:56;2.60;91.00
6054;DHT22;3055;50.886;14.814;2023-01-16T02:53:29;2.60;90.30
6054;DHT22;3055;50.886;14.814;2023-01-16T02:55:58;2.60;92.20
6054;DHT22;3055;50.886;14.814;2023-01-16T02:58:31;2.60;91.30
6054;DHT22;3055;50.886;14.814;2023-01-16T03:00:59;2.40;98.20
6054;DHT22;3055;50.886;14.814;2023-01-16T03:03:38;2.40;99.90
6054;DHT22;3055;50.886;14.814;2023-01-16T03:06:27;2.40;99.90
6054;DHT22;3055;50.886;14.814;2023-01-16T03:09:08;2.40;99.90
6054;DHT22;3055;50.886;14.814;2023-01-16T03:11:44;2.40;99.90
6054;DHT22;3055;50.886;14.814;2023-01-16T03:14:21;2.50;99.90
6054;DHT22;3055;50.886;14.814;2023-01-16T03:17:03;2.40;99.90
6054;DHT22;3055;50.886;14.814;2023-01-16T03:19:43;2.40;99.90
6054;DHT22;3055;50.886;14.814;2023-01-16T03:22:23;2.40;99.90
6054;DHT22;3055;50.886;14.814;2023-01-16T03:25:02;2.30;99.90
6054;DHT22;3055;50.886;14.814;2023-01-16T03:27:39;2.50;99.20
6054;DHT22;3055;50.886;14.814;2023-01-16T03:30:12;2.40;99.30
6054;DHT22;3055;50.886;14.814;2023-01-16T03:32:44;2.40;99.90
6054;DHT22;3055;50.886;14.814;2023-01-16T03:35:17;2.30;99.90
6054;DHT22;3055;50.886;14.814;2023-01-16T03:37:50;2.30;99.90
6054;DHT22;3055;50.886;14.814;2023-01-16T03:40:22;2.30;99.90
6054;DHT22;3055;50.886;14.814;2023-01-16T03:42:55;2.40;99.90
6054;DHT22;3055;50.886;14.814;2023-01-16T03:45:29;2.40;99.90
6054;DHT22;3055;50.886;14.814;2023-01-16T03:48:02;2.40;99.90
6054;DHT22;3055;50.886;14.814;2023-01-16T03:50:33;2.40;99.90
6054;DHT22;3055;50.886;14.814;2023-01-16T03:53:06;2.40;99.90
6054;DHT22;3055;50.886;14.814;2023-01-16T03:55:41;2.40;99.90
6054;DHT22;3055;50.886;14.814;2023-01-16T03:58:13;2.40;99.90
6054;DHT22;3055;50.886;14.814;2023-01-16T04:00:48;2.40;99.90
6054;DHT22;3055;50.886;14.814;2023-01-16T04:03:24;2.40;99.90
6054;DHT22;3055;50.886;14.814;2023-01-16T04:05:58;2.40;99.90
6054;DHT22;3055;50.886;14.814;2023-01-16T04:08:30;2.40;99.90
6054;DHT22;3055;50.886;14.814;2023-01-16T04:10:58;2.40;99.90
6054;DHT22;3055;50.886;14.814;2023-01-16T04:13:27;2.40;99.90
6054;DHT22;3055;50.886;14.814;2023-01-16T04:15:59;2.40;99.90
6054;DHT22;3055;50.886;14.814;2023-01-16T04:18:31;2.40;99.90
6054;DHT22;3055;50.886;14.814;2023-01-16T04:20:59;2.40;99.90
6054;DHT22;3055;50.886;14.814;2023-01-16T04:23:27;2.40;99.90
6054;DHT22;3055;50.886;14.814;2023-01-16T04:25:54;2.40;99.90
6054;DHT22;3055;50.886;14.814;2023-01-16T04:28:21;2.40;99.90
6054;DHT22;3055;50.886;14.814;2023-01-16T04:30:48;2.40;99.90
6054;DHT22;3055;50.886;14.814;2023-01-16T04:33:15;2.40;99.90
6054;DHT22;3055;50.886;14.814;2023-01-16T04:35:42;2.50;99.90
6054;DHT22;3055;50.886;14.814;2023-01-16T04:38:11;2.40;99.90
6054;DHT22;3055;50.886;14.814;2023-01-16T04:40:38;2.50;99.90
6054;DHT22;3055;50.886;14.814;2023-01-16T04:43:05;2.50;98.20
6054;DHT22;3055;50.886;14.814;2023-01-16T04:45:32;2.40;97.10
6054;DHT22;3055;50.886;14.814;2023-01-16T04:47:59;2.40;99.90
6054;DHT22;3055;50.886;14.814;2023-01-16T04:50:26;2.40;99.90
6054;DHT22;3055;50.886;14.814;2023-01-16T04:52:53;2.40;99.90
6054;DHT22;3055;50.886;14.814;2023-01-16T04:55:22;2.40;99.90
6054;DHT22;3055;50.886;14.814;2023-01-16T04:57:49;2.30;99.90
6054;DHT22;3055;50.886;14.814;2023-01-16T05:00:17;2.40;99.90
6054;DHT22;3055;50.886;14.814;2023-01-16T05:02:45;2.40;99.90
6054;DHT22;3055;50.886;14.814;2023-01-16T05:05:12;2.40;99.90
6054;DHT22;3055;50.886;14.814;2023-01-16T05:07:39;2.50;99.90
6054;DHT22;3055;50.886;14.814;2023-01-16T05:10:07;2.50;95.10
6054;DHT22;3055;50.886;14.814;2023-01-16T05:12:35;2.50;91.10
6054;DHT22;3055;50.886;14.814;2023-01-16T05:15:03;2.50;90.10
6054;DHT22;3055;50.886;14.814;2023-01-16T05:17:30;2.60;84.50
6054;DHT22;3055;50.886;14.814;2023-01-16T05:19:57;2.50;81.00
6054;DHT22;3055;50.886;14.814;2023-01-16T05:22:24;2.50;75.30
6054;DHT22;3055;50.886;14.814;2023-01-16T05:24:51;2.50;71.20
6054;DHT22;3055;50.886;14.814;2023-01-16T05:27:19;2.60;64.30
6054;DHT22;3055;50.886;14.814;2023-01-16T05:29:47;2.60;55.50
6054;DHT22;3055;50.886;14.814;2023-01-16T05:32:14;2.60;53.10
6054;DHT22;3055;50.886;14.814;2023-01-16T05:34:41;2.60;54.30
6054;DHT22;3055;50.886;14.814;2023-01-16T05:37:08;2.60;52.80
6054;DHT22;3055;50.886;14.814;2023-01-16T05:39:36;2.60;53.60
6054;DHT22;3055;50.886;14.814;2023-01-16T05:42:03;2.60;55.10
6054;DHT22;3055;50.886;14.814;2023-01-16T05:44:47;2.50;57.50
6054;DHT22;3055;50.886;14.814;2023-01-16T05:47:15;2.50;64.30
6054;DHT22;3055;50.886;14.814;2023-01-16T05:49:42;2.50;58.80
6054;DHT22;3055;50.886;14.814;2023-01-16T05:52:09;2.50;53.30
6054;DHT22;3055;50.886;14.814;2023-01-16T05:54:36;2.50;50.60
6054;DHT22;3055;50.886;14.814;2023-01-16T05:57:03;2.50;55.30
6054;DHT22;3055;50.886;14.814;2023-01-16T05:59:30;2.40;64.00
6054;DHT22;3055;50.886;14.814;2023-01-16T06:01:59;2.40;67.20
6054;DHT22;3055;50.886;14.814;2023-01-16T06:04:26;2.40;70.40
6054;DHT22;3055;50.886;14.814;2023-01-16T06:06:53;2.30;71.80
6054;DHT22;3055;50.886;14.814;2023-01-16T06:09:20;2.30;75.60
6054;DHT22;3055;50.886;14.814;2023-01-16T06:11:48;2.30;81.90
6054;DHT22;3055;50.886;14.814;2023-01-16T06:14:15;2.30;83.20
6054;DHT22;3055;50.886;14.814;2023-01-16T06:16:42;2.30;74.20
6054;DHT22;3055;50.886;14.814;2023-01-16T06:19:11;2.20;70.20
6054;DHT22;3055;50.886;14.814;2023-01-16T06:21:38;2.10;87.30
6054;DHT22;3055;50.886;14.814;2023-01-16T06:24:06;2.10;91.10
6054;DHT22;3055;50.886;14.814;2023-01-16T06:26:33;2.00;96.40
6054;DHT22;3055;50.886;14.814;2023-01-16T06:29:00;2.00;95.90
6054;DHT22;3055;50.886;14.814;2023-01-16T06:31:27;2.00;98.70
6054;DHT22;3055;50.886;14.814;2023-01-16T06:33:54;2.00;99.90
6054;DHT22;3055;50.886;14.814;2023-01-16T06:36:23;2.00;94.70
6054;DHT22;3055;50.886;14.814;2023-01-16T06:38:50;2.00;96.90
6054;DHT22;3055;50.886;14.814;2023-01-16T06:41:17;2.00;96.20
6054;DHT22;3055;50.886;14.814;2023-01-16T06:43:44;1.90;95.70
6054;DHT22;3055;50.886;14.814;2023-01-16T06:46:11;1.90;95.10
6054;DHT22;3055;50.886;14.814;2023-01-16T06:48:38;1.90;94.90
6054;DHT22;3055;50.886;14.814;2023-01-16T06:51:07;2.00;90.30
6054;DHT22;3055;50.886;14.814;2023-01-16T06:53:36;2.00;80.90
6054;DHT22;3055;50.886;14.814;2023-01-16T06:56:04;1.90;82.00
6054;DHT22;3055;50.886;14.814;2023-01-16T06:58:31;1.90;91.10
6054;DHT22;3055;50.886;14.814;2023-01-16T07:00:58;1.70;97.60
6054;DHT22;3055;50.886;14.814;2023-01-16T07:03:25;1.70;99.40
6054;DHT22;3055;50.886;14.814;2023-01-16T07:05:53;1.80;98.90
6054;DHT22;3055;50.886;14.814;2023-01-16T07:08:20;1.80;91.20
6054;DHT22;3055;50.886;14.814;2023-01-16T07:10:48;1.60;99.90
6054;DHT22;3055;50.886;14.814;2023-01-16T07:13:15;1.60;99.90
6054;DHT22;3055;50.886;14.814;2023-01-16T07:15:46;1.60;99.90
6054;DHT22;3055;50.886;14.814;2023-01-16T07:18:31;1.60;99.90
6054;DHT22;3055;50.886;14.814;2023-01-16T07:21:31;1.50;99.90
6054;DHT22;3055;50.886;14.814;2023-01-16T07:24:19;1.40;99.90
6054;DHT22;3055;50.886;14.814;2023-01-16T07:26:52;1.40;99.90
6054;DHT22;3055;50.886;14.814;2023-01-16T07:29:23;1.20;99.90
6054;DHT22;3055;50.886;14.814;2023-01-16T07:31:50;1.20;99.90
6054;DHT22;3055;50.886;14.814;2023-01-16T07:34:17;1.10;99.90
6054;DHT22;3055;50.886;14.814;2023-01-16T07:36:45;1.40;99.90
6054;DHT22;3055;50.886;14.814;2023-01-16T07:39:12;1.40;99.90
6054;DHT22;3055;50.886;14.814;2023-01-16T07:41:39;1.50;99.90
6054;DHT22;3055;50.886;14.814;2023-01-16T07:44:07;1.50;99.90
6054;DHT22;3055;50.886;14.814;2023-01-16T07:46:34;1.60;99.90
6054;DHT22;3055;50.886;14.814;2023-01-16T07:49:01;1.60;99.90
6054;DHT22;3055;50.886;14.814;2023-01-16T07:51:29;1.70;99.90
6054;DHT22;3055;50.886;14.814;2023-01-16T07:53:56;1.60;99.90
6054;DHT22;3055;50.886;14.814;2023-01-16T07:56:23;1.50;99.90
6054;DHT22;3055;50.886;14.814;2023-01-16T07:58:50;1.50;99.90
6054;DHT22;3055;50.886;14.814;2023-01-16T08:01:21;1.60;99.90
6054;DHT22;3055;50.886;14.814;2023-01-16T08:03:48;1.90;99.80
6054;DHT22;3055;50.886;14.814;2023-01-16T08:06:15;2.00;75.80
6054;DHT22;3055;50.886;14.814;2023-01-16T08:08:42;2.20;33.90
6054;DHT22;3055;50.886;14.814;2023-01-16T08:11:09;2.30;18.70
6054;DHT22;3055;50.886;14.814;2023-01-16T08:13:50;2.40;17.60
6054;DHT22;3055;50.886;14.814;2023-01-16T08:16:17;2.40;1.00
6054;DHT22;3055;50.886;14.814;2023-01-16T08:18:45;2.30;8.20
6054;DHT22;3055;50.886;14.814;2023-01-16T08:21:15;2.40;5.70
6054;DHT22;3055;50.886;14.814;2023-01-16T08:23:42;2.50;2.20
6054;DHT22;3055;50.886;14.814;2023-01-16T08:26:10;2.60;1.00
6054;DHT22;3055;50.886;14.814;2023-01-16T08:28:37;2.60;1.00
6054;DHT22;3055;50.886;14.814;2023-01-16T08:31:06;2.70;1.00
6054;DHT22;3055;50.886;14.814;2023-01-16T08:33:34;2.80;1.00
6054;DHT22;3055;50.886;14.814;2023-01-16T08:36:04;2.90;1.00
6054;DHT22;3055;50.886;14.814;2023-01-16T08:38:32;3.00;1.00
6054;DHT22;3055;50.886;14.814;2023-01-16T08:40:59;3.00;1.00
6054;DHT22;3055;50.886;14.814;2023-01-16T08:43:26;3.10;1.00
6054;DHT22;3055;50.886;14.814;2023-01-16T08:46:17;3.00;1.00
6054;DHT22;3055;50.886;14.814;2023-01-16T08:49:03;3.10;1.00
6054;DHT22;3055;50.886;14.814;2023-01-16T08:51:50;3.30;1.00
6054;DHT22;3055;50.886;14.814;2023-01-16T08:54:17;3.40;1.00
6054;DHT22;3055;50.886;14.814;2023-01-16T08:56:44;3.40;1.00
6054;DHT22;3055;50.886;14.814;2023-01-16T08:59:11;3.50;1.00
6054;DHT22;3055;50.886;14.814;2023-01-16T09:01:38;3.50;1.00
6054;DHT22;3055;50.886;14.814;2023-01-16T09:04:06;3.50;1.00
6054;DHT22;3055;50.886;14.814;2023-01-16T09:06:34;3.70;1.00
6054;DHT22;3055;50.886;14.814;2023-01-16T09:09:03;3.80;1.00
6054;DHT22;3055;50.886;14.814;2023-01-16T09:11:31;3.80;1.00
6054;DHT22;3055;50.886;14.814;2023-01-16T09:14:15;3.90;1.00
6054;DHT22;3055;50.886;14.814;2023-01-16T09:16:42;3.90;1.00
6054;DHT22;3055;50.886;14.814;2023-01-16T09:19:09;4.00;1.00
6054;DHT22;3055;50.886;14.814;2023-01-16T09:21:36;4.00;1.00
6054;DHT22;3055;50.886;14.814;2023-01-16T09:24:05;4.10;1.00
6054;DHT22;3055;50.886;14.814;2023-01-16T09:26:33;4.10;1.00
6054;DHT22;3055;50.886;14.814;2023-01-16T09:29:00;4.00;1.00
6054;DHT22;3055;50.886;14.814;2023-01-16T09:31:27;4.00;1.00
6054;DHT22;3055;50.886;14.814;2023-01-16T09:33:54;4.10;1.00
6054;DHT22;3055;50.886;14.814;2023-01-16T09:36:21;4.20;1.00
6054;DHT22;3055;50.886;14.814;2023-01-16T09:38:48;4.20;1.00
6054;DHT22;3055;50.886;14.814;2023-01-16T09:41:18;4.20;1.00
6054;DHT22;3055;50.886;14.814;2023-01-16T09:44:00;4.30;1.00
6054;DHT22;3055;50.886;14.814;2023-01-16T09:46:30;4.30;1.00
6054;DHT22;3055;50.886;14.814;2023-01-16T09:49:05;4.30;1.00
6054;DHT22;3055;50.886;14.814;2023-01-16T09:51:39;4.40;99.90
6054;DHT22;3055;50.886;14.814;2023-01-16T09:54:12;4.50;99.90
6054;DHT22;3055;50.886;14.814;2023-01-16T09:57:00;4.50;99.90
6054;DHT22;3055;50.886;14.814;2023-01-16T09:59:47;4.50;99.90
6054;DHT22;3055;50.886;14.814;2023-01-16T10:02:22;4.50;99.90
6054;DHT22;3055;50.886;14.814;2023-01-16T10:04:51;4.50;99.90
6054;DHT22;3055;50.886;14.814;2023-01-16T10:07:39;4.50;99.90
6054;DHT22;3055;50.886;14.814;2023-01-16T10:10:26;4.50;99.90
6054;DHT22;3055;50.886;14.814;2023-01-16T10:13:06;4.50;99.90
6054;DHT22;3055;50.886;14.814;2023-01-16T10:15:40;4.60;99.90
6054;DHT22;3055;50.886;14.814;2023-01-16T10:18:21;4.70;99.90
6054;DHT22;3055;50.886;14.814;2023-01-16T10:24:11;4.70;99.90
6054;DHT22;3055;50.886;14.814;2023-01-16T10:26:48;4.70;99.90
6054;DHT22;3055;50.886;14.814;2023-01-16T10:29:24;4.70;99.90
6054;DHT22;3055;50.886;14.814;2023-01-16T10:31:58;4.90;99.90
6054;DHT22;3055;50.886;14.814;2023-01-16T10:34:29;4.80;99.90
6054;DHT22;3055;50.886;14.814;2023-01-16T10:36:59;4.90;99.90
6054;DHT22;3055;50.886;14.814;2023-01-16T10:39:32;4.90;99.90
6054;DHT22;3055;50.886;14.814;2023-01-16T10:42:08;4.90;99.90
6054;DHT22;3055;50.886;14.814;2023-01-16T10:44:58;5.00;99.90
6054;DHT22;3055;50.886;14.814;2023-01-16T10:47:45;5.00;99.90
6054;DHT22;3055;50.886;14.814;2023-01-16T10:50:29;5.10;99.90
6054;DHT22;3055;50.886;14.814;2023-01-16T10:52:56;5.10;99.90
6054;DHT22;3055;50.886;14.814;2023-01-16T10:55:24;5.20;99.90
6054;DHT22;3055;50.886;14.814;2023-01-16T10:57:53;5.20;99.90
6054;DHT22;3055;50.886;14.814;2023-01-16T11:00:26;5.20;99.90
6054;DHT22;3055;50.886;14.814;2023-01-16T11:02:57;5.30;99.90
6054;DHT22;3055;50.886;14.814;2023-01-16T11:05:27;5.30;99.90
6054;DHT22;3055;50.886;14.814;2023-01-16T11:07:56;5.30;99.90
6054;DHT22;3055;50.886;14.814;2023-01-16T11:10:28;5.30;99.90
6054;DHT22;3055;50.886;14.814;2023-01-16T11:12:55;5.40;99.90
6054;DHT22;3055;50.886;14.814;2023-01-16T11:15:59;5.50;99.90
6054;DHT22;3055;50.886;14.814;2023-01-16T11:18:46;5.40;99.90
6054;DHT22;3055;50.886;14.814;2023-01-16T11:21:16;5.50;99.90
6054;DHT22;3055;50.886;14.814;2023-01-16T11:23:47;5.50;99.90
6054;DHT22;3055;50.886;14.814;2023-01-16T11:26:16;5.50;99.90
6054;DHT22;3055;50.886;14.814;2023-01-16T11:28:46;5.50;99.90
6054;DHT22;3055;50.886;14.814;2023-01-16T11:31:20;5.50;99.90
6054;DHT22;3055;50.886;14.814;2023-01-16T11:33:50;5.50;99.90
6054;DHT22;3055;50.886;14.814;2023-01-16T11:36:21;5.50;99.90
6054;DHT22;3055;50.886;14.814;2023-01-16T11:38:50;5.50;99.90
6054;DHT22;3055;50.886;14.814;2023-01-16T11:41:19;5.50;99.90
6054;DHT22;3055;50.886;14.814;2023-01-16T11:44:02;5.50;99.90
6054;DHT22;3055;50.886;14.814;2023-01-16T11:46:49;5.60;99.90
6054;DHT22;3055;50.886;14.814;2023-01-16T11:49:18;5.60;99.90
6054;DHT22;3055;50.886;14.814;2023-01-16T11:51:51;5.60;99.90
6054;DHT22;3055;50.886;14.814;2023-01-16T11:54:24;5.70;99.90
6054;DHT22;3055;50.886;14.814;2023-01-16T12:06:40;5.70;99.90
6054;DHT22;3055;50.886;14.814;2023-01-16T12:09:36;5.70;99.90
6054;DHT22;3055;50.886;14.814;2023-01-16T12:12:17;5.70;99.90
6054;DHT22;3055;50.886;14.814;2023-01-16T12:15:03;5.80;99.90
6054;DHT22;3055;50.886;14.814;2023-01-16T12:17:40;5.70;99.90
6054;DHT22;3055;50.886;14.814;2023-01-16T12:20:14;5.70;99.90
6054;DHT22;3055;50.886;14.814;2023-01-16T12:23:03;5.80;99.90
6054;DHT22;3055;50.886;14.814;2023-01-16T12:25:38;5.80;99.90
6054;DHT22;3055;50.886;14.814;2023-01-16T12:28:18;5.90;99.90
6054;DHT22;3055;50.886;14.814;2023-01-16T12:30:59;5.90;99.90
6054;DHT22;3055;50.886;14.814;2023-01-16T12:33:49;5.90;99.90
6054;DHT22;3055;50.886;14.814;2023-01-16T12:36:26;5.90;99.90
6054;DHT22;3055;50.886;14.814;2023-01-16T12:39:02;5.90;99.90
6054;DHT22;3055;50.886;14.814;2023-01-16T12:41:37;6.00;99.90
6054;DHT22;3055;50.886;14.814;2023-01-16T12:44:41;6.00;99.90
6054;DHT22;3055;50.886;14.814;2023-01-16T12:50:19;6.00;99.90
6054;DHT22;3055;50.886;14.814;2023-01-16T12:53:01;6.10;99.90
6054;DHT22;3055;50.886;14.814;2023-01-16T12:55:43;6.10;99.90
6054;DHT22;3055;50.886;14.814;2023-01-16T12:58:19;6.20;99.90
6054;DHT22;3055;50.886;14.814;2023-01-16T13:00:54;6.20;99.90
6054;DHT22;3055;50.886;14.814;2023-01-16T13:03:27;6.20;99.90
6054;DHT22;3055;50.886;14.814;2023-01-16T13:06:01;6.20;99.90
6054;DHT22;3055;50.886;14.814;2023-01-16T13:08:32;6.30;99.90
6054;DHT22;3055;50.886;14.814;2023-01-16T13:11:07;6.30;99.90
6054;DHT22;3055;50.886;14.814;2023-01-16T13:13:57;6.30;99.90
6054;DHT22;3055;50.886;14.814;2023-01-16T13:16:29;6.30;99.90
6054;DHT22;3055;50.886;14.814;2023-01-16T13:19:01;6.30;99.90
6054;DHT22;3055;50.886;14.814;2023-01-16T13:21:34;6.30;99.90
6054;DHT22;3055;50.886;14.814;2023-01-16T13:24:07;6.30;99.90
6054;DHT22;3055;50.886;14.814;2023-01-16T13:26:37;6.30;99.90
6054;DHT22;3055;50.886;14.814;2023-01-16T13:29:09;6.30;99.90
6054;DHT22;3055;50.886;14.814;2023-01-16T13:31:40;6.30;99.90
6054;DHT22;3055;50.886;14.814;2023-01-16T13:34:13;6.40;99.90
6054;DHT22;3055;50.886;14.814;2023-01-16T13:37:25;6.40;99.90
6054;DHT22;3055;50.886;14.814;2023-01-16T13:40:08;6.50;99.90
6054;DHT22;3055;50.886;14.814;2023-01-16T13:42:47;6.60;99.90
6054;DHT22;3055;50.886;14.814;2023-01-16T13:45:18;6.60;99.90
6054;DHT22;3055;50.886;14.814;2023-01-16T13:48:05;6.60;99.90
6054;DHT22;3055;50.886;14.814;2023-01-16T13:50:34;6.70;99.90
6054;DHT22;3055;50.886;14.814;2023-01-16T13:53:04;6.90;99.90
6054;DHT22;3055;50.886;14.814;2023-01-16T13:55:35;7.00;99.90
6054;DHT22;3055;50.886;14.814;2023-01-16T13:58:13;7.20;99.90
6054;DHT22;3055;50.886;14.814;2023-01-16T14:00:42;7.50;99.90
6054;DHT22;3055;50.886;14.814;2023-01-16T14:03:17;7.60;99.90
6054;DHT22;3055;50.886;14.814;2023-01-16T14:05:49;7.50;99.90
6054;DHT22;3055;50.886;14.814;2023-01-16T14:08:46;7.50;99.90
6054;DHT22;3055;50.886;14.814;2023-01-16T14:11:36;7.50;99.90
6054;DHT22;3055;50.886;14.814;2023-01-16T14:14:29;7.30;98.10
6054;DHT22;3055;50.886;14.814;2023-01-16T14:17:14;7.30;96.40
6054;DHT22;3055;50.886;14.814;2023-01-16T14:19:51;7.20;94.00
6054;DHT22;3055;50.886;14.814;2023-01-16T14:22:21;7.10;94.50
6054;DHT22;3055;50.886;14.814;2023-01-16T14:25:17;7.00;92.80
6054;DHT22;3055;50.886;14.814;2023-01-16T14:27:49;6.90;91.70
6054;DHT22;3055;50.886;14.814;2023-01-16T14:30:20;6.80;91.00
6054;DHT22;3055;50.886;14.814;2023-01-16T14:32:50;6.80;90.30
6054;DHT22;3055;50.886;14.814;2023-01-16T14:35:21;6.70;89.50
6054;DHT22;3055;50.886;14.814;2023-01-16T14:37:56;6.70;82.30
6054;DHT22;3055;50.886;14.814;2023-01-16T14:40:26;6.60;80.40
6054;DHT22;3055;50.886;14.814;2023-01-16T14:43:17;6.60;82.80
6054;DHT22;3055;50.886;14.814;2023-01-16T14:46:25;6.50;80.30
6054;DHT22;3055;50.886;14.814;2023-01-16T14:49:39;6.40;83.60
6054;DHT22;3055;50.886;14.814;2023-01-16T14:52:44;6.20;86.20
6054;DHT22;3055;50.886;14.814;2023-01-16T14:55:32;6.10;84.10
6054;DHT22;3055;50.886;14.814;2023-01-16T14:58:00;6.00;89.40
6054;DHT22;3055;50.886;14.814;2023-01-16T15:00:30;5.90;86.50
6054;DHT22;3055;50.886;14.814;2023-01-16T15:03:03;5.90;89.40
6054;DHT22;3055;50.886;14.814;2023-01-16T15:05:33;5.80;91.40
6054;DHT22;3055;50.886;14.814;2023-01-16T15:08:16;5.70;92.00
6054;DHT22;3055;50.886;14.814;2023-01-16T15:10:45;5.60;91.80
6054;DHT22;3055;50.886;14.814;2023-01-16T15:13:13;5.50;94.80
6054;DHT22;3055;50.886;14.814;2023-01-16T15:15:43;5.50;93.30
6054;DHT22;3055;50.886;14.814;2023-01-16T15:18:17;5.50;96.70
6054;DHT22;3055;50.886;14.814;2023-01-16T15:21:03;5.40;99.10
6054;DHT22;3055;50.886;14.814;2023-01-16T15:23:59;5.30;99.90
6054;DHT22;3055;50.886;14.814;2023-01-16T15:26:44;5.20;99.90
6054;DHT22;3055;50.886;14.814;2023-01-16T15:29:32;5.10;99.90
6054;DHT22;3055;50.886;14.814;2023-01-16T15:32:10;5.00;99.90
6054;DHT22;3055;50.886;14.814;2023-01-16T15:34:44;5.00;99.90
6054;DHT22;3055;50.886;14.814;2023-01-16T15:37:22;5.00;99.90
6054;DHT22;3055;50.886;14.814;2023-01-16T15:39:50;4.90;99.90
6054;DHT22;3055;50.886;14.814;2023-01-16T15:42:20;4.90;99.90
6054;DHT22;3055;50.886;14.814;2023-01-16T15:45:16;4.80;99.90
6054;DHT22;3055;50.886;14.814;2023-01-16T15:48:28;4.70;99.90
6054;DHT22;3055;50.886;14.814;2023-01-16T15:50:59;4.60;99.90
6054;DHT22;3055;50.886;14.814;2023-01-16T15:53:31;4.60;99.90
6054;DHT22;3055;50.886;14.814;2023-01-16T15:56:02;4.60;99.90
6054;DHT22;3055;50.886;14.814;2023-01-16T15:58:30;4.60;99.90
6054;DHT22;3055;50.886;14.814;2023-01-16T16:00:59;4.60;99.90
6054;DHT22;3055;50.886;14.814;2023-01-16T16:03:29;4.50;99.90
6054;DHT22;3055;50.886;14.814;2023-01-16T16:06:00;4.30;99.90
6054;DHT22;3055;50.886;14.814;2023-01-16T16:08:31;4.40;99.90
6054;DHT22;3055;50.886;14.814;2023-01-16T16:11:01;4.30;99.90
6054;DHT22;3055;50.886;14.814;2023-01-16T16:13:48;4.30;99.90
6054;DHT22;3055;50.886;14.814;2023-01-16T16:16:17;4.40;99.90
6054;DHT22;3055;50.886;14.814;2023-01-16T16:19:03;4.50;99.90
6054;DHT22;3055;50.886;14.814;2023-01-16T16:21:34;4.50;99.90
6054;DHT22;3055;50.886;14.814;2023-01-16T16:24:05;4.50;99.90
6054;DHT22;3055;50.886;14.814;2023-01-16T16:26:39;4.50;99.90
6054;DHT22;3055;50.886;14.814;2023-01-16T16:29:16;4.50;99.90
6054;DHT22;3055;50.886;14.814;2023-01-16T16:31:44;4.40;99.90
6054;DHT22;3055;50.886;14.814;2023-01-16T16:34:16;4.40;99.90
6054;DHT22;3055;50.886;14.814;2023-01-16T16:36:47;4.50;99.90
6054;DHT22;3055;50.886;14.814;2023-01-16T16:39:35;4.50;99.90
6054;DHT22;3055;50.886;14.814;2023-01-16T16:42:45;4.50;99.90
6054;DHT22;3055;50.886;14.814;2023-01-16T16:45:19;4.40;99.90
6054;DHT22;3055;50.886;14.814;2023-01-16T16:47:47;4.40;99.90
6054;DHT22;3055;50.886;14.814;2023-01-16T16:50:35;4.40;99.90
6054;DHT22;3055;50.886;14.814;2023-01-16T16:53:05;4.40;99.90
6054;DHT22;3055;50.886;14.814;2023-01-16T16:55:34;4.40;99.90
6054;DHT22;3055;50.886;14.814;2023-01-16T16:58:04;4.30;99.90